Aeroporto :
LOGIN :

Iscrizione | Disclaimer

   EN    FR    IT 

 










Sommario :    VFR   VFR Marginale   IFR   IFR Intensivo   IFR Molto Intensivo
Visibilità : 
Base nubi : 
>= 8 km
>= 3000ft
5 / 8 km
1000 / 3000 ft
1500m / 5 km
500 / 1000 ft
800 / 1500m
200 / 500 ft
< 800m
< 200 ft
Simboli :   Temporali  Nebbia  Neve Forte  Precipitazioni Forti  Vento > 20 kt
SIGMETs :   Varie  Temporali  Ghiacco  Turbolenza  Onda orograficha  Ceneri Vulcaniche






- Altitudine del aeroporto : 1548 ft


LKNA - Náměšť Air Base

ULTIMO METAR :
  • 191300Z 14010KT 6000 OVC005 11/11 Q1013 RMK YLO YLO

METARs OBSOLETI :
  • 191225Z 14008KT 3000 OVC003 11/11 Q1013 RMK YLO
  • 191202Z 11008KT 2000 BR OVC002 11/11 Q1013 RMK AMB
  • 191100Z 10007KT 0200 R13/0300D FG VV002 10/10 Q1013 NOSIG RMK RED RED

TAF TAF LKNA
Valido dal 19 a 12 ore il 20 a 12 ore UTC


191100Z 1912/2012 12008KT 0500 FG VV002
BECMG 1913/1915 4000 BR OVC006
TEMPO 1915/1920 8000 BKN010
PROB40
TEMPO 2000/2009 0500 FG VV001



MetMap, La meteo Aeronautica in un colpo d'occhio ! - Copyright ORBIFLY Dicembre 2007 - Disclaimer

ORBIFLY MET'MAP TEAM :

Programmazione e sviluppo : Alexandra Zaïnal
Concezione e sviluppo : Baudouin d'Aumeries
Co-Programmazione e sviluppo : Marc-Olivier Méhu
Supporto tecnico e logistico : Manuel Goepfert
Aiuto per la traduzione : Arnaldo La Scala

Contatto : metmap@orbifly.com




FONTI E CREDITI :

   NOAA